Arlington, VA (22201)

1:17 AM EDT on August 23, 2017 (GMT -0400)
Lyon Park | | Change Station

Elev 282 ft 38.88 °N, 77.10 °W | Updated 18 seconds ago

Partly Cloudy
Partly Cloudy
82.0 °F
Feels Like 89 °F
N
0.0
Wind Variable Wind from SSE
Gusts 0.0 mph

Today
High -- | Low -- °F
--% Chance of Precip.
Yesterday
High -- | Low -- °F
Precip. -- in
Pressure 29.83 in
Visibility 10.0 miles
Clouds Scattered Clouds 3800 ft
Mostly Cloudy 9000 ft
Overcast 25000 ft
Heat Index 89 °F
Dew Point 75 °F
Humidity 80%
Rainfall 0.00 in
Snow Depth Not available.
6:29 AM 7:51 PM
Waxing Crescent, 3% visible
METAR KDCA 230452Z 31005KT 10SM SCT038 BKN090 OVC250 29/22 A2983 RMK AO2 SLP100 T02890222 403330239
Pressure 29.83 in
Visibility 10.0 miles
Clouds Scattered Clouds 3800 ft
Mostly Cloudy 9000 ft
Overcast 25000 ft
Heat Index 89 °F
Dew Point 75 °F
Humidity 80%
Rainfall 0.00 in
Snow Depth Not available.
6:29 AM 7:51 PM
Waxing Crescent, 3% visible
METAR KDCA 230452Z 31005KT 10SM SCT038 BKN090 OVC250 29/22 A2983 RMK AO2 SLP100 T02890222 403330239

Get Severe Weather Alerts

Thanks for signing up!

Be on the lookout for a verification email in your inbox.

You'll start receiving the daily forecast at 6 AM.

×

10-Day Weather Forecast

Almanac

Astronomy

Aug. 23, 2017 Rise Set
Actual Time
Civil Twilight
Nautical Twilight
Astronomical Twilight
Moon
Length of Visible Light
Length of Day
Tomorrow will be .
, % of the Moon is Illuminated

Today's Extremes

State Highs State Lows

Community

WunderPhotos

Category 6

Welcome to Category 6. This is the collective home for Weather Underground's featured writeups by Dr. Jeff Masters (right), Bob Henson (left), Chris Burt, and other regular contributors.

Nearby

Air Quality

  Air Quality AQ Index Pollutant
Not available.

Snow Depth

Station Depth Elevation

Earthquake Activity

City Distance Mag. Time & Date
Minimum magnitude displayed is 2.5.

Coastal Water Temperatures

Place Temperature

Stations

Nearby Weather Stations

Station Location Temp. Windchill Dew Point Humidity Wind Precip. Elev Updated Type
                   

Watches & Warnings

There are currently no watches in effect.